La Grande, OR

9:14 PM PST on December 20, 2014 (GMT -0800)
La Grande | Change Station
CLOSE
Current Station
Personal Weather Station
Location: La Grande, OR
Elevation: 2850 ft
Nearby Weather Stations
Active Advisory: Areal Flood Watch

Elev 2850 ft 45.33 °N, 118.10 °W | Updated 1 second ago

Rain
Rain
39.1 °F
Feels Like 39 °F
N
0.0
Wind Variable Wind from North
Gusts 0.0 mph

Today
High -- | Low -- °F
--% Chance of Precip.
Yesterday
High -- | Low -- °F
Precip. -- in
7:28 AM 4:12 PM
Waning Crescent, 1% visible
Pressure 29.73 in
Visibility 10.0 miles
Clouds Overcast 4400 ft
Windchill 39 °F
Dew Point 37 °F
Humidity 94%
Rainfall 0.91 in
Snow Depth Not available.
UV 0 out of 12
Pollen .90 out of 12
Air Quality Not available.
Flu Activity Not available.
METAR KLGD 210455Z AUTO 17012G19KT 10SM OVC044 04/M01 A2973 RMK AO1 P0005

More Conditions Fewer Conditions

Pressure 29.73 in
Visibility 10.0 miles
Clouds Overcast 4400 ft
Windchill 39 °F
Dew Point 37 °F
Humidity 94%
Rainfall 0.91 in
Snow Depth Not available.
UV 0 out of 12
Pollen .90 out of 12
Air Quality Not available.
Flu Activity Not available.
METAR KLGD 210455Z AUTO 17012G19KT 10SM OVC044 04/M01 A2973 RMK AO1 P0005

More Conditions Fewer Conditions

10-Day Weather Forecast

Almanac

Astronomy

Dec. 20, 2014 Rise Set
Actual Time
Civil Twilight
Nautical Twilight
Astronomical Twilight
Moon
Length of Visible Light
Length of Day
Tomorrow will be .
, % of the Moon is Illuminated

Today's Extremes

State Highs State Lows

Community

WunderPhotos

Upload Photos

1,779,358 photos uploaded!

WunderBlogs® & News

Nearby

Air Quality

  Air Quality AQ Index Pollutant
Not available.

Snow Depth

Station Depth Elevation

Earthquake Activity

City Distance Mag. Time & Date
Minimum magnitude displayed is 2.5.

Coastal Water Temperatures

Place Temperature

Nearby Weather Stations